Time;durP1;ratioP1;P1;durP2;ratioP2;P2;SDS_P1;SDS_P2;PMS_P1;PMS_P2;Temp;Humidity;BMP_temperature;BMP_pressure;BME280_temperature;BME280_humidity;BME280_pressure;Samples;Min_cycle;Max_cycle;Signal;HPM_P1;HPM_P2
2022/01/13 00:00:17;;;;;;;33.28;10.73;;;4.50;99.90;;;;;;5063315;28;20063;-81
2022/01/13 00:02:44;;;;;;;29.55;10.95;;;4.50;99.90;;;;;;5066061;28;20051;-80
2022/01/13 00:05:10;;;;;;;27.55;9.85;;;4.50;99.90;;;;;;5081698;28;20051;-80
2022/01/13 00:07:36;;;;;;;29.38;10.45;;;4.50;99.90;;;;;;5062355;28;20063;-81
2022/01/13 00:10:04;;;;;;;29.10;11.02;;;4.60;99.90;;;;;;5062959;28;20047;-82
2022/01/13 00:12:35;;;;;;;26.40;10.70;;;4.60;99.90;;;;;;5078706;28;20564;-81
2022/01/13 00:18:00;;;;;;;26.55;11.05;;;4.60;99.90;;;;;;5035066;28;20048;-81
2022/01/13 00:25:37;;;;;;;26.95;11.00;;;4.70;99.90;;;;;;5063941;28;20064;-81
2022/01/13 00:28:12;;;;;;;36.75;10.10;;;5.60;99.90;;;;;;5075711;28;20043;-81
2022/01/13 00:30:38;;;;;;;30.15;10.27;;;4.70;99.90;;;;;;5063335;28;20131;-81
2022/01/13 00:33:04;;;;;;;31.13;10.55;;;4.70;99.90;;;;;;5079618;28;20142;-81
2022/01/13 00:35:29;;;;;;;32.78;10.35;;;4.90;99.90;;;;;;5046690;28;20445;-81
2022/01/13 00:37:55;;;;;;;27.77;10.05;;;4.80;99.90;;;;;;5063000;28;20044;-81
2022/01/13 00:40:21;;;;;;;31.33;11.20;;;4.80;99.90;;;;;;5062396;28;20130;-81
2022/01/13 00:42:47;;;;;;;27.30;9.57;;;4.80;99.90;;;;;;5062385;28;20122;-81
2022/01/13 00:45:14;;;;;;;32.15;9.98;;;4.80;99.90;;;;;;5079403;28;20051;-81
2022/01/13 00:47:41;;;;;;;28.70;10.20;;;5.80;99.90;;;;;;5062742;28;20056;-81
2022/01/13 00:50:08;;;;;;;33.40;9.95;;;4.80;99.90;;;;;;5079146;28;20040;-82
2022/01/13 00:52:34;;;;;;;37.40;10.20;;;4.80;99.90;;;;;;5078589;28;20067;-81
2022/01/13 00:55:05;;;;;;;29.98;9.10;;;5.30;99.90;;;;;;5061100;28;20090;-81
2022/01/13 00:57:32;;;;;;;30.70;9.23;;;6.00;99.90;;;;;;5046167;28;20079;-82
2022/01/13 00:59:59;;;;;;;26.70;9.65;;;5.30;99.90;;;;;;5046190;28;20044;-81
2022/01/13 01:02:25;;;;;;;29.70;10.43;;;4.90;99.90;;;;;;5080046;28;20055;-81
2022/01/13 01:04:51;;;;;;;26.83;8.88;;;4.90;99.90;;;;;;5048142;28;20054;-81
2022/01/13 01:07:17;;;;;;;35.30;9.07;;;6.00;99.90;;;;;;5041313;28;20044;-81
2022/01/13 01:09:49;;;;;;;34.78;8.98;;;5.70;99.90;;;;;;5059927;28;20127;-80
2022/01/13 01:12:17;;;;;;;30.30;9.25;;;4.90;99.90;;;;;;5046380;28;20058;-81
2022/01/13 01:14:52;;;;;;;28.80;8.63;;;4.90;99.90;;;;;;5077903;28;20048;-81
2022/01/13 01:17:18;;;;;;;28.60;8.68;;;4.80;99.90;;;;;;5071058;28;20054;-81
2022/01/13 01:19:48;;;;;;;24.00;8.25;;;5.40;99.90;;;;;;5061804;28;20051;-82
2022/01/13 01:27:45;;;;;;;30.73;8.68;;;4.80;99.90;;;;;;5033142;28;20068;-81
2022/01/13 01:30:25;;;;;;;30.85;8.77;;;4.80;99.90;;;;;;5030668;28;20060;-82
2022/01/13 01:32:51;;;;;;;24.80;7.63;;;4.80;99.90;;;;;;5001729;28;20099;-81
2022/01/13 01:35:18;;;;;;;30.38;9.27;;;4.90;99.90;;;;;;5046442;28;20049;-81
2022/01/13 01:37:45;;;;;;;26.27;8.98;;;4.90;99.90;;;;;;4997745;28;20056;-81
2022/01/13 01:40:12;;;;;;;25.52;8.65;;;4.80;99.90;;;;;;5029239;28;20053;-82
2022/01/13 01:42:39;;;;;;;30.52;9.18;;;4.80;99.90;;;;;;5045696;28;20496;-81
2022/01/13 01:45:08;;;;;;;20.77;7.63;;;4.90;99.90;;;;;;5047212;28;20048;-81
2022/01/13 01:47:34;;;;;;;30.00;8.48;;;4.90;99.90;;;;;;5022562;28;20045;-81
2022/01/13 01:50:17;;;;;;;31.55;8.77;;;4.80;99.90;;;;;;5046521;28;20118;-80
2022/01/13 01:52:45;;;;;;;25.67;8.18;;;4.90;99.90;;;;;;5023184;28;20045;-81
2022/01/13 01:55:11;;;;;;;27.05;8.70;;;4.90;99.90;;;;;;5030008;28;20044;-82
2022/01/13 01:57:37;;;;;;;34.17;8.98;;;4.90;99.90;;;;;;5030224;28;20045;-81
2022/01/13 02:00:08;;;;;;;30.35;8.88;;;5.00;99.90;;;;;;5030012;28;20060;-81
2022/01/13 02:02:34;;;;;;;33.35;9.20;;;5.00;99.90;;;;;;5054989;28;20092;-81
2022/01/13 02:05:00;;;;;;;30.27;8.98;;;4.90;99.90;;;;;;4998017;28;20083;-80
2022/01/13 02:07:26;;;;;;;26.83;8.27;;;5.10;99.90;;;;;;5013673;28;20045;-81
2022/01/13 02:09:53;;;;;;;36.88;9.48;;;4.90;99.90;;;;;;5030797;28;20500;-81
2022/01/13 02:12:32;;;;;;;29.85;8.75;;;4.90;99.90;;;;;;5045532;28;20048;-80
2022/01/13 02:15:15;;;;;;;28.02;9.07;;;4.90;99.90;;;;;;5030902;28;20060;-81
2022/01/13 02:17:42;;;;;;;25.48;9.45;;;5.90;99.90;;;;;;5029668;28;20049;-80
2022/01/13 02:20:10;;;;;;;33.20;8.70;;;4.90;99.90;;;;;;5022716;28;20048;-81
2022/01/13 02:22:36;;;;;;;26.27;9.50;;;4.90;99.90;;;;;;5030070;28;20047;-81
2022/01/13 02:25:03;;;;;;;24.30;9.45;;;4.90;99.90;;;;;;5014270;28;20057;-81
2022/01/13 02:27:29;;;;;;;31.35;10.88;;;4.90;99.90;;;;;;5040173;28;20409;-80
2022/01/13 02:29:55;;;;;;;34.00;10.25;;;4.90;99.90;;;;;;5060498;28;20082;-80
2022/01/13 02:32:21;;;;;;;26.67;10.18;;;4.90;99.90;;;;;;5059348;28;20041;-80
2022/01/13 02:34:48;;;;;;;35.33;10.07;;;5.20;99.90;;;;;;5077020;28;20055;-80
2022/01/13 02:37:14;;;;;;;33.08;10.38;;;5.00;99.90;;;;;;5059317;28;20048;-80
2022/01/13 02:39:41;;;;;;;35.72;10.27;;;5.40;99.90;;;;;;5043057;28;20070;-80
2022/01/13 02:42:12;;;;;;;30.55;10.23;;;5.60;99.90;;;;;;5077330;28;20041;-80
2022/01/13 02:45:01;;;;;;;28.17;9.65;;;5.00;99.90;;;;;;5044190;28;20048;-80
2022/01/13 02:48:30;;;;;;;32.17;11.80;;;5.00;99.90;;;;;;5060238;28;20389;-80
2022/01/13 02:50:22;;;;;;;29.42;9.75;;;5.00;99.90;;;;;;5052171;28;20490;-81
2022/01/13 02:52:48;;;;;;;36.83;10.85;;;5.00;99.90;;;;;;5060324;28;20040;-80
2022/01/13 02:55:13;;;;;;;32.13;11.52;;;5.00;99.90;;;;;;5048106;28;20048;-80
2022/01/13 02:57:39;;;;;;;35.00;12.65;;;5.00;99.90;;;;;;5046086;28;20048;-80
2022/01/13 03:00:09;;;;;;;39.03;12.80;;;5.00;99.90;;;;;;5080126;28;20070;-80
2022/01/13 03:02:34;;;;;;;32.30;10.80;;;5.10;99.90;;;;;;5081561;28;20048;-79
2022/01/13 03:05:00;;;;;;;36.92;12.55;;;5.00;99.90;;;;;;5047150;28;20097;-80
2022/01/13 03:07:30;;;;;;;37.70;12.93;;;5.40;99.90;;;;;;5058481;28;20064;-80
2022/01/13 03:09:55;;;;;;;33.85;12.68;;;5.80;99.90;;;;;;5063451;28;20127;-80
2022/01/13 03:12:23;;;;;;;35.67;13.75;;;5.00;99.90;;;;;;5045275;28;20158;-81
2022/01/13 03:14:48;;;;;;;32.28;12.88;;;5.00;99.90;;;;;;5063688;28;20056;-80
2022/01/13 03:17:14;;;;;;;43.15;14.00;;;5.00;99.90;;;;;;5063153;28;20059;-81
2022/01/13 03:19:40;;;;;;;46.83;14.65;;;5.00;99.90;;;;;;5044713;28;20297;-80
2022/01/13 03:22:05;;;;;;;36.00;14.13;;;5.10;99.90;;;;;;5046961;28;20044;-80
2022/01/13 03:24:31;;;;;;;33.85;14.90;;;5.10;99.90;;;;;;5079672;28;20143;-80
2022/01/13 03:26:57;;;;;;;36.95;14.68;;;5.50;99.90;;;;;;5044054;28;20056;-80
2022/01/13 03:29:24;;;;;;;42.65;14.57;;;5.00;99.90;;;;;;5078298;28;20062;-81
2022/01/13 03:31:50;;;;;;;39.38;14.63;;;5.00;99.90;;;;;;5046268;28;20054;-80
2022/01/13 03:34:16;;;;;;;40.90;15.15;;;5.40;99.90;;;;;;5047050;28;20049;-81
2022/01/13 03:36:44;;;;;;;41.33;15.85;;;5.00;99.90;;;;;;5061475;28;20919;-80
2022/01/13 03:39:10;;;;;;;40.63;15.90;;;5.70;99.90;;;;;;5046061;28;20052;-80
2022/01/13 03:41:38;;;;;;;50.35;17.33;;;5.10;99.90;;;;;;5047635;28;20052;-80
2022/01/13 03:44:07;;;;;;;46.00;15.82;;;5.00;99.90;;;;;;5047391;28;20048;-80
2022/01/13 03:46:37;;;;;;;44.17;16.33;;;5.00;99.90;;;;;;5046423;28;20059;-80
2022/01/13 03:49:07;;;;;;;53.70;18.15;;;4.90;99.90;;;;;;5062130;28;20134;-80
2022/01/13 03:52:05;;;;;;;48.67;16.92;;;5.50;99.90;;;;;;5061865;28;20083;-80
2022/01/13 03:54:35;;;;;;;59.58;18.55;;;4.90;99.90;;;;;;5064341;28;20106;-80
2022/01/13 03:57:38;;;;;;;46.20;16.83;;;4.90;99.90;;;;;;5079165;28;20052;-80
2022/01/13 04:00:43;;;;;;;52.03;17.40;;;4.90;99.90;;;;;;5046323;28;20080;-80
2022/01/13 04:03:09;;;;;;;52.58;18.40;;;4.80;99.90;;;;;;5078938;28;20056;-81
2022/01/13 04:06:12;;;;;;;51.58;18.40;;;5.90;99.90;;;;;;5078933;28;20063;-80
2022/01/13 04:08:39;;;;;;;55.50;18.75;;;4.80;99.90;;;;;;5060393;28;20119;-80
2022/01/13 04:11:05;;;;;;;47.03;18.58;;;4.90;99.90;;;;;;5045855;28;20055;-80
2022/01/13 04:13:57;;;;;;;59.67;19.40;;;4.90;99.90;;;;;;5078425;28;20048;-80
2022/01/13 04:16:28;;;;;;;51.92;19.25;;;4.90;99.90;;;;;;5062577;28;20138;-79
2022/01/13 04:18:58;;;;;;;53.97;20.65;;;4.90;99.90;;;;;;5047217;28;20059;-80
2022/01/13 04:21:24;;;;;;;56.20;21.15;;;4.90;99.90;;;;;;5078837;28;20040;-80
2022/01/13 04:23:53;;;;;;;57.63;20.10;;;4.90;99.90;;;;;;5060825;28;20049;-80
2022/01/13 04:26:27;;;;;;;55.50;20.38;;;4.90;99.90;;;;;;5059043;28;20102;-80
2022/01/13 04:29:00;;;;;;;61.63;21.77;;;4.90;99.90;;;;;;5062211;28;20181;-80
2022/01/13 04:31:26;;;;;;;57.60;20.42;;;5.80;99.90;;;;;;5063219;28;20052;-81
2022/01/13 04:33:52;;;;;;;60.63;22.25;;;4.90;99.90;;;;;;5028634;28;20153;-80
2022/01/13 04:36:17;;;;;;;52.78;19.35;;;4.90;99.90;;;;;;5028921;28;20074;-81
2022/01/13 04:38:43;;;;;;;69.93;21.90;;;5.30;99.90;;;;;;5061662;28;20077;-80
2022/01/13 04:41:09;;;;;;;62.67;23.20;;;4.90;99.90;;;;;;5044524;28;20059;-81
2022/01/13 04:43:34;;;;;;;60.67;22.48;;;5.00;99.90;;;;;;5078075;28;20052;-81
2022/01/13 04:46:00;;;;;;;70.25;21.88;;;5.00;99.90;;;;;;5079000;28;20080;-80
2022/01/13 04:48:26;;;;;;;67.93;22.90;;;5.70;99.90;;;;;;5060757;28;20048;-80
2022/01/13 04:50:52;;;;;;;58.50;23.13;;;5.70;99.90;;;;;;5077475;28;20108;-81
2022/01/13 04:53:18;;;;;;;62.75;21.75;;;5.10;99.90;;;;;;5045084;28;20044;-80
2022/01/13 04:55:50;;;;;;;55.42;21.30;;;5.10;99.90;;;;;;5043963;28;20057;-81
2022/01/13 04:58:17;;;;;;;53.75;20.60;;;5.10;99.90;;;;;;5029704;28;20077;-81
2022/01/13 05:00:43;;;;;;;56.78;22.55;;;5.20;99.90;;;;;;5078189;28;20398;-80
2022/01/13 05:03:09;;;;;;;66.47;21.60;;;5.20;99.90;;;;;;5060409;28;20037;-81
2022/01/13 05:05:34;;;;;;;58.35;22.23;;;5.40;99.90;;;;;;5043850;28;20401;-81
2022/01/13 05:08:00;;;;;;;57.67;20.65;;;5.30;99.90;;;;;;5058389;28;20048;-81
2022/01/13 05:10:26;;;;;;;56.20;21.73;;;5.40;99.90;;;;;;5062035;28;20051;-81
2022/01/13 05:12:56;;;;;;;62.75;22.00;;;6.50;99.90;;;;;;5061047;28;20227;-80
2022/01/13 05:15:26;;;;;;;58.25;21.52;;;5.40;99.90;;;;;;5077214;28;20047;-80
2022/01/13 05:20:27;;;;;;;53.95;20.75;;;6.40;99.90;;;;;;5076741;28;20075;-81
2022/01/13 05:22:53;;;;;;;59.13;21.08;;;5.50;99.90;;;;;;5044954;28;20076;-80
2022/01/13 05:25:20;;;;;;;46.25;19.48;;;5.50;99.90;;;;;;5062148;28;20079;-80
2022/01/13 05:27:47;;;;;;;51.10;18.60;;;5.40;99.90;;;;;;5042729;28;20095;-80
2022/01/13 05:30:15;;;;;;;56.85;19.25;;;5.40;99.90;;;;;;5051039;28;20056;-80
2022/01/13 05:32:42;;;;;;;57.90;18.85;;;5.90;99.90;;;;;;5049154;28;20083;-80
2022/01/13 05:35:08;;;;;;;56.88;18.95;;;5.70;99.90;;;;;;5067055;28;20423;-80
2022/01/13 05:37:33;;;;;;;44.75;18.45;;;5.40;99.90;;;;;;5033579;28;20048;-81
2022/01/13 05:39:59;;;;;;;55.05;18.60;;;5.40;99.90;;;;;;5050662;28;20093;-80
2022/01/13 05:42:25;;;;;;;58.30;18.48;;;5.90;99.90;;;;;;5018663;28;20727;-80
2022/01/13 05:44:51;;;;;;;41.75;17.15;;;5.70;99.90;;;;;;5033385;28;20106;-80
2022/01/13 05:47:17;;;;;;;49.97;18.52;;;5.40;99.90;;;;;;5049948;28;20756;-79
2022/01/13 05:49:43;;;;;;;50.97;18.02;;;6.30;99.90;;;;;;5049854;28;20084;-80
2022/01/13 05:52:11;;;;;;;53.60;16.92;;;5.50;99.90;;;;;;5067613;28;20449;-80
2022/01/13 05:54:38;;;;;;;47.03;17.63;;;5.30;99.90;;;;;;5066560;28;20068;-80
2022/01/13 05:57:04;;;;;;;51.67;16.45;;;5.40;99.90;;;;;;5034508;28;20053;-80
2022/01/13 05:59:30;;;;;;;42.45;15.18;;;5.30;99.90;;;;;;5049193;28;20048;-81
2022/01/13 06:01:57;;;;;;;50.97;16.02;;;5.30;99.90;;;;;;5049805;28;20155;-80
2022/01/13 06:04:23;;;;;;;46.22;16.92;;;5.70;99.90;;;;;;5034370;28;20070;-80
2022/01/13 06:06:48;;;;;;;49.90;17.52;;;5.20;99.90;;;;;;5016486;28;20104;-79
2022/01/13 06:09:14;;;;;;;52.90;17.00;;;5.30;99.90;;;;;;5033644;28;20048;-79
2022/01/13 06:11:44;;;;;;;49.33;18.15;;;5.20;99.90;;;;;;5049470;28;20378;-80
2022/01/13 06:14:10;;;;;;;50.65;18.50;;;5.20;99.90;;;;;;5066919;28;20147;-79
2022/01/13 06:16:36;;;;;;;59.33;19.67;;;5.20;99.90;;;;;;5050046;28;20062;-79
2022/01/13 06:19:03;;;;;;;55.13;18.83;;;5.10;99.90;;;;;;5049882;28;20136;-79
2022/01/13 06:21:29;;;;;;;56.75;19.33;;;5.20;99.90;;;;;;5050171;28;20044;-79
2022/01/13 06:23:54;;;;;;;51.05;17.27;;;5.20;99.90;;;;;;5047915;28;20555;-79
2022/01/13 06:26:20;;;;;;;49.42;17.40;;;5.20;99.90;;;;;;5049246;28;20060;-79
2022/01/13 06:28:46;;;;;;;58.90;18.35;;;5.40;99.90;;;;;;5045498;28;20059;-79
2022/01/13 06:31:12;;;;;;;59.80;19.73;;;5.30;99.90;;;;;;5050181;28;20047;-79
2022/01/13 06:33:37;;;;;;;47.50;19.25;;;5.80;99.90;;;;;;5048787;28;20045;-79
2022/01/13 06:36:04;;;;;;;53.90;19.48;;;5.30;99.90;;;;;;5033418;28;20555;-79
2022/01/13 06:38:30;;;;;;;50.20;18.30;;;5.40;99.90;;;;;;5048437;28;20186;-80
2022/01/13 06:40:56;;;;;;;49.65;18.77;;;5.70;99.90;;;;;;5049890;28;20094;-80
2022/01/13 06:43:22;;;;;;;52.88;20.30;;;5.50;99.90;;;;;;5033102;28;20068;-79
2022/01/13 06:45:48;;;;;;;51.03;20.08;;;5.50;99.90;;;;;;5033403;28;20099;-79
2022/01/13 06:48:14;;;;;;;47.90;19.50;;;5.70;99.90;;;;;;5023993;28;20040;-81
2022/01/13 06:50:40;;;;;;;47.30;20.17;;;5.60;99.90;;;;;;5040654;28;20056;-80
2022/01/13 06:53:06;;;;;;;46.42;18.63;;;5.70;99.90;;;;;;5048799;28;20053;-80
2022/01/13 06:55:32;;;;;;;47.08;19.42;;;5.70;99.90;;;;;;5066501;28;20045;-80
2022/01/13 06:57:58;;;;;;;46.92;18.58;;;5.70;99.90;;;;;;5024461;28;20067;-80
2022/01/13 07:00:24;;;;;;;51.40;19.65;;;5.60;99.90;;;;;;5049746;28;20091;-80
2022/01/13 07:02:52;;;;;;;50.72;18.77;;;5.80;99.90;;;;;;5047637;28;20080;-80
2022/01/13 07:05:18;;;;;;;45.33;18.17;;;5.80;99.90;;;;;;5026140;28;20053;-79
2022/01/13 07:07:45;;;;;;;48.78;19.30;;;5.80;99.90;;;;;;5063442;28;20122;-80
2022/01/13 07:10:12;;;;;;;43.28;17.80;;;5.80;99.90;;;;;;5031014;28;20071;-79
2022/01/13 07:12:39;;;;;;;43.53;17.08;;;5.80;99.90;;;;;;5046302;28;20124;-79
2022/01/13 07:15:09;;;;;;;49.30;19.85;;;5.90;99.90;;;;;;5046796;28;20055;-79
2022/01/13 07:17:35;;;;;;;40.92;18.25;;;5.90;99.90;;;;;;5063899;28;20147;-80
2022/01/13 07:20:02;;;;;;;49.75;19.05;;;6.30;99.90;;;;;;5064357;28;20159;-79
2022/01/13 07:22:28;;;;;;;47.33;19.17;;;6.00;99.90;;;;;;5047630;28;20458;-79
2022/01/13 07:24:55;;;;;;;45.78;19.92;;;6.00;99.90;;;;;;5025734;28;20094;-80
2022/01/13 07:27:21;;;;;;;49.85;18.58;;;6.10;99.90;;;;;;5047162;28;20060;-80
2022/01/13 07:29:48;;;;;;;50.97;19.05;;;6.10;99.90;;;;;;5021078;28;20049;-80
2022/01/13 07:32:15;;;;;;;47.72;18.90;;;6.10;99.90;;;;;;5031729;28;20133;-79
2022/01/13 07:34:41;;;;;;;45.40;17.55;;;6.20;99.90;;;;;;5029610;28;20395;-79
2022/01/13 07:37:07;;;;;;;41.22;17.60;;;6.10;99.90;;;;;;5065234;28;20047;-79
2022/01/13 07:39:35;;;;;;;47.92;17.95;;;6.40;99.90;;;;;;5051201;28;20055;-79
2022/01/13 07:42:02;;;;;;;35.50;17.65;;;6.50;99.90;;;;;;5034320;28;20040;-79
2022/01/13 07:44:28;;;;;;;46.97;17.33;;;6.10;99.90;;;;;;5050544;28;20092;-78
2022/01/13 07:46:56;;;;;;;48.13;17.92;;;6.10;99.90;;;;;;5034528;28;20080;-78
2022/01/13 07:49:22;;;;;;;40.85;17.75;;;6.10;99.90;;;;;;5050830;28;20044;-80
2022/01/13 07:51:48;;;;;;;41.22;17.00;;;6.10;99.90;;;;;;5050321;28;20166;-80
2022/01/13 07:54:13;;;;;;;37.60;16.95;;;6.10;99.90;;;;;;5028514;28;20446;-79
2022/01/13 07:56:39;;;;;;;48.53;16.65;;;6.10;99.90;;;;;;5051519;28;20048;-79
2022/01/13 07:59:05;;;;;;;42.20;17.42;;;6.10;99.90;;;;;;5027934;28;20235;-79
2022/01/13 08:01:30;;;;;;;46.25;16.75;;;6.10;99.90;;;;;;5034741;28;20129;-79
2022/01/13 08:03:56;;;;;;;40.88;17.05;;;6.10;99.90;;;;;;5035554;28;20048;-78
2022/01/13 08:06:22;;;;;;;43.20;16.45;;;6.20;99.90;;;;;;5050733;28;20131;-79
2022/01/13 08:08:47;;;;;;;41.80;17.35;;;6.20;99.90;;;;;;5016602;28;20094;-80
2022/01/13 08:11:16;;;;;;;48.42;18.35;;;6.20;99.90;;;;;;5046596;28;20551;-78
2022/01/13 08:13:43;;;;;;;38.88;16.85;;;6.20;99.90;;;;;;5049879;28;20037;-78
2022/01/13 08:16:10;;;;;;;45.72;16.75;;;6.20;99.90;;;;;;5049833;28;20068;-79
2022/01/13 08:21:21;;;;;;;38.80;15.35;;;6.20;99.90;;;;;;5066016;28;20565;-78
2022/01/13 08:23:49;;;;;;;39.17;15.63;;;6.10;99.90;;;;;;5032701;28;20045;-80
2022/01/13 08:26:15;;;;;;;35.92;15.95;;;6.20;99.90;;;;;;5054237;28;20055;-80
2022/01/13 08:28:41;;;;;;;40.83;16.20;;;6.10;99.90;;;;;;5044395;28;20036;-79
2022/01/13 08:31:07;;;;;;;38.65;15.32;;;6.10;99.90;;;;;;5045711;28;20040;-78
2022/01/13 08:33:33;;;;;;;39.58;16.40;;;6.10;99.90;;;;;;5032053;28;20101;-79
2022/01/13 08:35:59;;;;;;;36.10;15.65;;;6.00;99.90;;;;;;5078081;28;20048;-80
2022/01/13 08:38:25;;;;;;;34.50;15.10;;;6.00;99.90;;;;;;5060275;28;20066;-80
2022/01/13 08:40:56;;;;;;;34.45;16.27;;;6.00;99.90;;;;;;5061431;28;20036;-79
2022/01/13 08:43:23;;;;;;;34.95;15.80;;;5.90;99.90;;;;;;5044572;28;20140;-79
2022/01/13 08:45:49;;;;;;;35.85;15.50;;;5.90;99.90;;;;;;5058474;28;20136;-79
2022/01/13 08:48:16;;;;;;;41.20;16.40;;;7.00;99.90;;;;;;5074890;28;20557;-80
2022/01/13 08:50:42;;;;;;;35.00;17.00;;;6.50;99.90;;;;;;5078134;28;20444;-80
2022/01/13 08:53:08;;;;;;;38.20;16.83;;;6.70;99.90;;;;;;5041949;28;20127;-80
2022/01/13 08:55:34;;;;;;;40.42;17.20;;;6.00;99.90;;;;;;5076946;28;20450;-80
2022/01/13 08:58:00;;;;;;;34.03;16.50;;;6.00;99.90;;;;;;5044744;28;20044;-80
2022/01/13 09:00:26;;;;;;;37.00;17.50;;;6.10;99.90;;;;;;5043306;28;20133;-81
2022/01/13 09:02:52;;;;;;;38.53;17.52;;;6.80;99.90;;;;;;5041511;28;20079;-80
2022/01/13 09:05:19;;;;;;;44.08;16.60;;;6.40;99.90;;;;;;5061665;28;20455;-80
2022/01/13 09:07:45;;;;;;;37.40;17.63;;;6.20;99.90;;;;;;5077241;28;20049;-80
2022/01/13 09:10:13;;;;;;;41.00;18.50;;;6.30;99.90;;;;;;5045744;28;20127;-80
2022/01/13 09:12:39;;;;;;;34.10;16.77;;;6.30;99.90;;;;;;5059827;28;20481;-80
2022/01/13 09:15:19;;;;;;;38.47;18.00;;;6.30;99.90;;;;;;5059153;28;20608;-80
2022/01/13 09:17:51;;;;;;;34.85;17.67;;;6.40;99.90;;;;;;5044764;28;20049;-80
2022/01/13 09:20:17;;;;;;;38.13;17.83;;;6.40;99.90;;;;;;5075995;28;20052;-80
2022/01/13 09:22:43;;;;;;;35.10;16.13;;;6.50;99.90;;;;;;5060420;28;20047;-80
2022/01/13 09:25:13;;;;;;;38.40;16.33;;;6.60;99.90;;;;;;5075013;28;20051;-80
2022/01/13 09:27:41;;;;;;;34.28;15.52;;;6.40;99.90;;;;;;5077138;28;20493;-80
2022/01/13 09:30:13;;;;;;;35.72;16.67;;;6.40;99.90;;;;;;5058967;28;20433;-79
2022/01/13 09:32:39;;;;;;;42.20;17.92;;;6.40;99.90;;;;;;5059491;28;20098;-80
2022/01/13 09:35:07;;;;;;;36.35;17.17;;;6.40;99.90;;;;;;5074753;28;20056;-79
2022/01/13 09:37:34;;;;;;;43.03;17.65;;;6.50;99.90;;;;;;5061680;28;20126;-80
2022/01/13 09:40:00;;;;;;;48.90;18.80;;;6.40;99.90;;;;;;5072464;28;20044;-79
2022/01/13 09:42:29;;;;;;;36.97;17.58;;;6.50;99.90;;;;;;5057865;28;20124;-79
2022/01/13 09:44:57;;;;;;;48.70;17.88;;;6.50;99.90;;;;;;5072995;28;20122;-79
2022/01/13 09:47:23;;;;;;;36.97;16.08;;;6.40;99.90;;;;;;5053138;28;20505;-79
2022/01/13 09:49:49;;;;;;;42.95;17.77;;;6.40;99.90;;;;;;5060086;28;20051;-78
2022/01/13 09:52:15;;;;;;;40.67;17.80;;;6.40;99.90;;;;;;5038160;28;20048;-78
2022/01/13 09:54:41;;;;;;;49.40;18.45;;;6.50;99.90;;;;;;5054120;28;20051;-79
2022/01/13 09:57:08;;;;;;;44.58;17.75;;;6.80;99.90;;;;;;5066052;28;20151;-79
2022/01/13 09:59:34;;;;;;;34.83;17.60;;;6.40;99.90;;;;;;5057280;28;20048;-79
2022/01/13 10:01:59;;;;;;;39.10;18.75;;;6.40;99.90;;;;;;5061262;28;20097;-79
2022/01/13 10:04:49;;;;;;;44.58;19.65;;;6.40;99.90;;;;;;5027801;28;20036;-79
2022/01/13 10:07:29;;;;;;;41.90;18.40;;;6.40;99.90;;;;;;5072739;28;20036;-79
2022/01/13 10:09:59;;;;;;;44.50;18.23;;;6.40;99.90;;;;;;5077629;28;20070;-79
2022/01/13 10:12:40;;;;;;;45.78;18.35;;;6.40;99.90;;;;;;5059512;28;20040;-79
2022/01/13 10:18:04;;;;;;;43.85;18.88;;;6.40;99.90;;;;;;5075745;28;20505;-84
2022/01/13 10:20:31;;;;;;;41.72;19.13;;;7.10;99.90;;;;;;5057621;28;20068;-80
2022/01/13 10:23:11;;;;;;;45.25;18.73;;;6.40;99.90;;;;;;5041998;28;20071;-79
2022/01/13 10:25:40;;;;;;;44.45;18.45;;;6.50;99.90;;;;;;5059308;28;20105;-79
2022/01/13 10:28:18;;;;;;;46.35;19.60;;;6.50;99.90;;;;;;5058565;28;20044;-79
2022/01/13 10:30:47;;;;;;;32.85;17.55;;;6.50;99.90;;;;;;5041872;28;20114;-79
2022/01/13 10:33:19;;;;;;;37.08;17.08;;;6.60;99.90;;;;;;5053552;28;20599;-84
2022/01/13 10:35:46;;;;;;;38.65;16.33;;;6.60;99.90;;;;;;5048729;28;20090;-83
2022/01/13 10:38:16;;;;;;;34.80;16.65;;;6.60;99.90;;;;;;5066305;28;20087;-84
2022/01/13 10:40:45;;;;;;;34.08;16.10;;;6.60;99.90;;;;;;5053604;28;20553;-79
2022/01/13 10:43:11;;;;;;;32.63;15.82;;;6.70;99.90;;;;;;5041132;28;20048;-79
2022/01/13 10:45:55;;;;;;;34.75;16.10;;;6.60;99.90;;;;;;5036135;28;20051;-82
2022/01/13 10:48:22;;;;;;;33.75;15.63;;;6.70;99.90;;;;;;5072280;28;20043;-87
2022/01/13 10:50:53;;;;;;;37.05;15.77;;;6.70;99.90;;;;;;5042083;28;20086;-83
2022/01/13 10:53:33;;;;;;;37.90;16.17;;;6.50;99.90;;;;;;5040761;28;20047;-78
2022/01/13 10:56:06;;;;;;;35.88;16.75;;;6.70;99.90;;;;;;5054960;28;20051;-83
2022/01/13 10:58:33;;;;;;;30.98;15.90;;;6.70;99.90;;;;;;5055652;28;20525;-82
2022/01/13 11:01:00;;;;;;;32.15;14.88;;;6.80;99.90;;;;;;5054243;28;20048;-84
2022/01/13 11:03:29;;;;;;;35.28;14.80;;;5.60;99.90;;;;;;5042800;28;20052;-83
2022/01/13 11:06:00;;;;;;;28.85;14.68;;;6.80;99.90;;;;;;5053638;28;20127;-83
2022/01/13 11:08:30;;;;;;;33.17;14.93;;;7.90;99.90;;;;;;5054839;28;20117;-83
2022/01/13 11:10:58;;;;;;;29.10;14.65;;;6.80;99.90;;;;;;5057642;28;20052;-83
2022/01/13 11:13:30;;;;;;;36.55;15.73;;;6.80;99.90;;;;;;5061566;28;20044;-84
2022/01/13 11:15:59;;;;;;;30.38;14.32;;;6.70;99.90;;;;;;5048617;28;20090;-84
2022/01/13 11:18:28;;;;;;;28.83;14.23;;;6.80;99.90;;;;;;5057278;28;20584;-83
2022/01/13 11:20:54;;;;;;;32.22;13.93;;;6.80;99.90;;;;;;5060634;28;20044;-84
2022/01/13 11:23:21;;;;;;;29.55;13.85;;;6.90;99.90;;;;;;5057148;28;20055;-83
2022/01/13 11:25:50;;;;;;;36.10;14.07;;;6.80;99.90;;;;;;5045335;28;20077;-84
2022/01/13 11:28:16;;;;;;;31.15;14.27;;;7.20;99.90;;;;;;5057931;28;20524;-82
2022/01/13 11:30:49;;;;;;;28.70;13.10;;;7.10;99.90;;;;;;5063362;28;20126;-82
2022/01/13 11:33:16;;;;;;;27.92;13.20;;;7.00;99.90;;;;;;5054859;28;20040;-83
2022/01/13 11:35:48;;;;;;;33.47;13.98;;;7.00;99.90;;;;;;5062039;28;20048;-83
2022/01/13 11:38:17;;;;;;;31.08;13.50;;;7.90;99.90;;;;;;5054225;28;20370;-79
2022/01/13 11:40:44;;;;;;;27.02;12.98;;;7.10;99.90;;;;;;5049538;28;20112;-81
2022/01/13 11:43:24;;;;;;;30.83;13.52;;;7.10;99.90;;;;;;5065064;28;20052;-81
2022/01/13 11:45:50;;;;;;;27.98;12.60;;;7.20;99.90;;;;;;5047633;28;20725;-80
2022/01/13 11:48:18;;;;;;;28.25;13.02;;;7.20;99.90;;;;;;5078107;28;20052;-80
2022/01/13 11:50:49;;;;;;;24.55;12.50;;;7.10;99.90;;;;;;5048938;28;20048;-81
2022/01/13 11:53:23;;;;;;;25.23;12.95;;;7.20;99.90;;;;;;5076257;28;20081;-82
2022/01/13 11:55:56;;;;;;;24.83;12.20;;;7.20;99.90;;;;;;5061486;28;20071;-80
2022/01/13 11:58:38;;;;;;;30.63;12.27;;;7.30;99.90;;;;;;5061129;28;20040;-81
2022/01/13 12:01:19;;;;;;;24.27;11.70;;;7.30;99.90;;;;;;5060418;28;20050;-82
2022/01/13 12:03:56;;;;;;;22.83;11.30;;;7.40;99.90;;;;;;5077025;28;20447;-84
2022/01/13 12:06:49;;;;;;;24.45;12.20;;;7.40;99.90;;;;;;5075360;28;20461;-83
2022/01/13 12:09:20;;;;;;;32.03;11.57;;;7.40;99.90;;;;;;5059773;28;20052;-83
2022/01/13 12:11:53;;;;;;;25.75;12.32;;;7.40;99.90;;;;;;5050031;28;20124;-83
2022/01/13 12:14:27;;;;;;;30.33;11.43;;;7.40;99.90;;;;;;5060726;28;20075;-83
2022/01/13 12:16:55;;;;;;;28.10;12.13;;;7.40;99.90;;;;;;5046061;28;20429;-83
2022/01/13 12:19:32;;;;;;;30.23;11.65;;;7.50;99.90;;;;;;5073862;28;20143;-82
2022/01/13 12:22:08;;;;;;;25.52;10.80;;;7.50;99.90;;;;;;5074513;28;20079;-83
2022/01/13 12:24:49;;;;;;;29.95;11.50;;;6.40;99.90;;;;;;5044899;28;20090;-83
2022/01/13 12:27:37;;;;;;;25.52;11.27;;;7.70;99.90;;;;;;5075996;28;20048;-84
2022/01/13 12:30:21;;;;;;;29.55;11.30;;;7.40;99.90;;;;;;5060984;28;20497;-83
2022/01/13 12:32:52;;;;;;;32.42;12.88;;;7.40;99.90;;;;;;5057672;28;20043;-82
2022/01/13 12:35:21;;;;;;;26.80;11.40;;;7.30;99.90;;;;;;5057374;28;20067;-83
2022/01/13 12:38:07;;;;;;;25.05;11.70;;;7.40;99.90;;;;;;5076172;28;20500;-82
2022/01/13 12:40:45;;;;;;;25.33;10.93;;;7.30;99.90;;;;;;5061543;28;20039;-82
2022/01/13 12:46:19;;;;;;;25.25;11.35;;;7.20;99.90;;;;;;5075242;28;20074;-83
2022/01/13 12:48:50;;;;;;;30.23;12.02;;;7.20;99.90;;;;;;5059278;28;20044;-83
2022/01/13 12:51:24;;;;;;;28.75;12.25;;;7.20;99.90;;;;;;5063812;28;20051;-85
2022/01/13 12:53:50;;;;;;;28.60;11.75;;;7.20;99.90;;;;;;5059000;28;20498;-82
2022/01/13 12:56:22;;;;;;;32.28;12.15;;;7.20;99.90;;;;;;5059559;28;20048;-84
2022/01/13 12:58:51;;;;;;;25.88;11.90;;;7.10;99.90;;;;;;5076276;28;20102;-82
2022/01/13 13:01:20;;;;;;;27.85;11.98;;;8.50;99.90;;;;;;5060691;28;20036;-83
2022/01/13 13:04:01;;;;;;;27.85;12.80;;;7.20;99.90;;;;;;5074733;28;20051;-83
2022/01/13 13:06:29;;;;;;;26.20;12.57;;;7.10;99.90;;;;;;5045750;28;20052;-83
2022/01/13 13:09:10;;;;;;;28.73;11.60;;;7.10;99.90;;;;;;5064105;28;20130;-83
2022/01/13 13:11:44;;;;;;;35.70;12.25;;;7.10;99.90;;;;;;5060176;28;20801;-82